Terminal Aerodrome Forecast
Issued by NWS

Home | Current Version | Previous Version | Text Only | Print | Product List | Glossary On
Versions: 1 2 3 4 5 6 7 8 9 10 11 12 13 14 15 16 17 18 19 20 21 22 23 24 25 26 27 28 29
000
FTUS43 KLSX 181100
TAFSUS
TAF
KSUS 181136Z 1812/1912 08004KT 6SM -SN OVC035
     FM181400 08004KT 3SM -SN BR OVC020
     FM181600 08004KT 5SM -SN BR OVC015
     FM190000 06004KT 5SM BR OVC015
     FM190700 06004KT 3SM BR OVC008=

USA.gov is the U.S. government's official web portal to all federal, state and local government web resources and services.